Time;durP1;ratioP1;P1;durP2;ratioP2;P2;SDS_P1;SDS_P2;PMS_P1;PMS_P2;Temp;Humidity;BMP_temperature;BMP_pressure;BME280_temperature;BME280_humidity;BME280_pressure;Samples;Min_cycle;Max_cycle;Signal;HPM_P1;HPM_P2
2021/10/03 00:00:31;;;;;;;479.07;447.77;;;;;;;;;;5058881;28;20499;-67
2021/10/03 00:02:59;;;;;;;480.23;449.33;;;;;;;;;;5039118;28;20451;-67
2021/10/03 00:05:26;;;;;;;491.23;461.13;;;;;;;;;;5052752;28;20447;-69
2021/10/03 00:07:57;;;;;;;500.50;470.33;;;;;;;;;;5069528;28;20447;-68
2021/10/03 00:10:26;;;;;;;492.83;462.07;;;;;;;;;;5071047;28;20857;-67
2021/10/03 00:12:53;;;;;;;498.00;466.30;;;;;;;;;;5052316;28;21240;-67
2021/10/03 00:15:21;;;;;;;487.03;455.73;;;;;;;;;;5053178;28;20455;-66
2021/10/03 00:17:49;;;;;;;508.67;477.77;;;;;;;;;;5053423;28;20825;-67
2021/10/03 00:20:18;;;;;;;510.30;479.90;;;;;;;;;;5052648;28;20468;-68
2021/10/03 00:22:45;;;;;;;513.17;482.60;;;;;;;;;;5052067;28;20459;-67
2021/10/03 00:25:13;;;;;;;508.83;477.80;;;;;;;;;;5052349;28;20448;-66
2021/10/03 00:27:42;;;;;;;510.27;479.13;;;;;;;;;;5053269;28;20448;-67
2021/10/03 00:30:09;;;;;;;479.33;448.50;;;;;;;;;;5053206;28;20467;-67
2021/10/03 00:32:37;;;;;;;509.00;477.07;;;;;;;;;;5052774;28;20831;-67
2021/10/03 00:35:04;;;;;;;513.80;482.10;;;;;;;;;;5053658;28;20970;-67
2021/10/03 00:37:31;;;;;;;525.40;493.50;;;;;;;;;;5052379;28;20479;-67
2021/10/03 00:39:58;;;;;;;522.30;490.63;;;;;;;;;;5060534;28;20470;-67
2021/10/03 00:42:26;;;;;;;511.70;480.10;;;;;;;;;;5072852;28;20447;-67
2021/10/03 00:44:55;;;;;;;509.67;477.73;;;;;;;;;;5054848;28;20444;-67
2021/10/03 00:47:22;;;;;;;516.10;484.30;;;;;;;;;;5052115;28;20813;-67
2021/10/03 00:49:49;;;;;;;501.47;469.87;;;;;;;;;;5051966;28;20482;-68
2021/10/03 00:52:16;;;;;;;479.70;448.70;;;;;;;;;;5052688;28;20828;-68
2021/10/03 00:54:43;;;;;;;492.67;461.80;;;;;;;;;;5052283;28;20459;-68
2021/10/03 00:57:10;;;;;;;506.23;475.33;;;;;;;;;;5052154;28;21014;-66
2021/10/03 00:59:37;;;;;;;493.80;463.43;;;;;;;;;;5052120;28;20990;-67
2021/10/03 01:02:06;;;;;;;495.73;465.53;;;;;;;;;;5052236;28;20796;-66
2021/10/03 01:04:33;;;;;;;489.57;457.97;;;;;;;;;;5052835;28;20456;-67
2021/10/03 01:07:00;;;;;;;474.93;443.13;;;;;;;;;;5052288;28;20923;-67
2021/10/03 01:09:28;;;;;;;496.00;464.70;;;;;;;;;;5051587;28;21002;-67
2021/10/03 01:11:55;;;;;;;476.50;445.47;;;;;;;;;;5051869;28;20993;-67
2021/10/03 01:14:22;;;;;;;483.37;452.37;;;;;;;;;;5053264;28;20448;-67
2021/10/03 01:16:50;;;;;;;464.87;434.87;;;;;;;;;;5052244;28;20486;-69
2021/10/03 01:19:19;;;;;;;469.03;438.93;;;;;;;;;;5052111;28;20840;-67
2021/10/03 01:21:48;;;;;;;466.90;437.00;;;;;;;;;;5052023;28;20451;-68
2021/10/03 01:24:15;;;;;;;453.53;424.03;;;;;;;;;;5051753;28;20486;-67
2021/10/03 01:26:42;;;;;;;446.20;416.67;;;;;;;;;;5031688;28;20452;-67
2021/10/03 01:29:10;;;;;;;432.47;403.47;;;;;;;;;;5049821;28;20998;-68
2021/10/03 01:31:37;;;;;;;449.17;419.77;;;;;;;;;;5054262;28;20832;-68
2021/10/03 01:34:04;;;;;;;440.83;412.10;;;;;;;;;;5054374;28;20455;-68
2021/10/03 01:36:31;;;;;;;432.20;403.67;;;;;;;;;;5051406;28;20472;-67
2021/10/03 01:39:00;;;;;;;433.57;404.87;;;;;;;;;;5051305;28;20468;-67
2021/10/03 01:41:27;;;;;;;428.70;400.23;;;;;;;;;;5052346;28;20448;-67
2021/10/03 01:43:54;;;;;;;451.50;423.00;;;;;;;;;;5057074;28;20467;-65
2021/10/03 01:46:21;;;;;;;466.80;437.93;;;;;;;;;;5051745;28;20450;-65
2021/10/03 01:48:48;;;;;;;464.30;434.57;;;;;;;;;;5050683;28;20986;-65
2021/10/03 01:51:16;;;;;;;445.63;416.50;;;;;;;;;;5051563;28;20444;-67
2021/10/03 01:53:45;;;;;;;431.27;402.87;;;;;;;;;;5053336;28;20953;-65
2021/10/03 01:56:13;;;;;;;429.80;401.47;;;;;;;;;;5051414;28;20486;-65
2021/10/03 01:58:42;;;;;;;425.80;397.70;;;;;;;;;;5051646;28;20455;-65
2021/10/03 02:01:16;;;;;;;421.47;393.97;;;;;;;;;;5051238;28;20947;-65
2021/10/03 02:03:43;;;;;;;424.77;397.03;;;;;;;;;;5070715;28;20460;-67
2021/10/03 02:06:10;;;;;;;420.23;392.70;;;;;;;;;;5054497;28;20463;-65
2021/10/03 02:08:37;;;;;;;420.87;393.67;;;;;;;;;;5051321;28;20451;-68
2021/10/03 02:11:05;;;;;;;428.97;401.47;;;;;;;;;;5051262;28;20451;-65
2021/10/03 02:13:33;;;;;;;425.40;397.47;;;;;;;;;;5068767;28;20454;-65
2021/10/03 02:16:02;;;;;;;422.03;394.40;;;;;;;;;;5057378;28;20479;-65
2021/10/03 02:18:34;;;;;;;419.47;391.87;;;;;;;;;;5051276;28;20448;-65
2021/10/03 02:21:01;;;;;;;419.10;391.50;;;;;;;;;;5050967;28;20510;-67
2021/10/03 02:23:28;;;;;;;421.13;393.57;;;;;;;;;;5054024;28;20448;-67
2021/10/03 02:25:55;;;;;;;446.97;418.77;;;;;;;;;;5050683;28;20443;-67
2021/10/03 02:28:23;;;;;;;447.00;418.87;;;;;;;;;;5051366;28;20467;-66
2021/10/03 02:30:53;;;;;;;440.63;412.63;;;;;;;;;;5050971;28;20994;-67
2021/10/03 02:33:20;;;;;;;433.80;405.60;;;;;;;;;;5055023;28;20962;-67
2021/10/03 02:35:48;;;;;;;432.63;405.13;;;;;;;;;;5054115;28;20479;-65
2021/10/03 02:38:16;;;;;;;431.90;403.70;;;;;;;;;;5054478;28;21002;-65
2021/10/03 02:40:44;;;;;;;425.53;397.63;;;;;;;;;;5055178;28;20475;-65
2021/10/03 02:43:11;;;;;;;421.00;393.70;;;;;;;;;;5069166;28;20454;-65
2021/10/03 02:45:39;;;;;;;430.17;402.83;;;;;;;;;;5069855;28;20447;-65
2021/10/03 02:48:07;;;;;;;424.80;396.87;;;;;;;;;;5055141;28;20455;-65
2021/10/03 02:50:35;;;;;;;409.60;381.93;;;;;;;;;;5054676;28;20479;-66
2021/10/03 02:53:02;;;;;;;422.27;394.67;;;;;;;;;;5055240;28;20447;-66
2021/10/03 02:55:30;;;;;;;449.10;421.20;;;;;;;;;;5054682;28;20470;-67
2021/10/03 02:57:57;;;;;;;430.47;402.47;;;;;;;;;;5054584;28;20986;-65
2021/10/03 03:00:24;;;;;;;427.97;399.80;;;;;;;;;;5059203;28;20467;-68
2021/10/03 03:02:51;;;;;;;417.57;390.07;;;;;;;;;;5054416;28;20443;-67
2021/10/03 03:05:19;;;;;;;430.23;402.73;;;;;;;;;;5049505;28;20463;-65
2021/10/03 03:07:46;;;;;;;440.50;413.33;;;;;;;;;;5056501;28;20451;-66
2021/10/03 03:10:13;;;;;;;432.97;404.83;;;;;;;;;;5054293;28;20846;-66
2021/10/03 03:12:40;;;;;;;452.77;424.20;;;;;;;;;;5070122;28;20459;-67
2021/10/03 03:15:08;;;;;;;457.27;428.37;;;;;;;;;;5074372;28;20447;-67
2021/10/03 03:17:35;;;;;;;472.70;444.37;;;;;;;;;;5058435;28;20497;-66
2021/10/03 03:20:03;;;;;;;468.57;439.97;;;;;;;;;;5065330;28;20478;-67
2021/10/03 03:22:31;;;;;;;462.20;433.20;;;;;;;;;;5054111;28;20957;-66
2021/10/03 03:24:58;;;;;;;463.27;434.07;;;;;;;;;;5053465;28;20443;-67
2021/10/03 03:27:25;;;;;;;485.03;455.27;;;;;;;;;;5053773;28;20927;-67
2021/10/03 03:29:52;;;;;;;492.47;462.73;;;;;;;;;;5063381;28;20471;-67
2021/10/03 03:32:20;;;;;;;495.07;465.67;;;;;;;;;;5074513;28;20465;-66
2021/10/03 03:34:47;;;;;;;475.20;445.30;;;;;;;;;;5064483;28;20459;-67
2021/10/03 03:37:14;;;;;;;506.80;476.33;;;;;;;;;;5054211;28;20479;-67
2021/10/03 03:39:42;;;;;;;497.63;466.63;;;;;;;;;;5053431;28;21021;-67
2021/10/03 03:42:09;;;;;;;490.53;458.80;;;;;;;;;;5053452;28;20448;-67
2021/10/03 03:44:37;;;;;;;506.57;475.37;;;;;;;;;;5053065;28;20829;-67
2021/10/03 03:47:04;;;;;;;528.07;497.17;;;;;;;;;;5053611;28;20436;-67
2021/10/03 03:49:31;;;;;;;499.90;468.40;;;;;;;;;;5058231;28;20993;-68
2021/10/03 03:51:58;;;;;;;489.13;456.97;;;;;;;;;;5073619;28;20451;-68
2021/10/03 03:54:25;;;;;;;492.70;461.00;;;;;;;;;;5058435;28;20448;-67
2021/10/03 03:56:54;;;;;;;488.30;457.00;;;;;;;;;;5053052;28;20537;-67
2021/10/03 03:59:25;;;;;;;491.70;459.33;;;;;;;;;;5053011;28;20525;-67
2021/10/03 04:01:52;;;;;;;490.03;457.93;;;;;;;;;;5033968;28;20547;-67
2021/10/03 04:04:19;;;;;;;501.60;469.73;;;;;;;;;;5045250;28;20801;-67
2021/10/03 04:06:46;;;;;;;505.20;473.10;;;;;;;;;;5053238;28;20459;-67
2021/10/03 04:09:13;;;;;;;502.37;470.67;;;;;;;;;;5055983;28;20469;-67
2021/10/03 04:11:40;;;;;;;527.23;494.53;;;;;;;;;;5070586;28;20440;-67
2021/10/03 04:14:09;;;;;;;518.43;485.67;;;;;;;;;;5053319;28;20440;-67
2021/10/03 04:16:36;;;;;;;521.93;489.53;;;;;;;;;;5053249;28;20454;-67
2021/10/03 04:19:03;;;;;;;529.83;496.53;;;;;;;;;;5051997;28;20834;-67
2021/10/03 04:21:30;;;;;;;555.57;523.30;;;;;;;;;;5053431;28;20454;-67
2021/10/03 04:23:57;;;;;;;548.90;516.20;;;;;;;;;;5052895;28;20634;-67
2021/10/03 04:26:25;;;;;;;547.07;515.03;;;;;;;;;;5053162;28;20463;-67
2021/10/03 04:28:52;;;;;;;542.73;510.60;;;;;;;;;;5052561;28;20844;-68
2021/10/03 04:31:20;;;;;;;540.23;508.53;;;;;;;;;;5052600;28;20459;-67
2021/10/03 04:33:47;;;;;;;552.77;520.57;;;;;;;;;;5053284;28;20455;-67
2021/10/03 04:36:14;;;;;;;539.20;507.57;;;;;;;;;;5052737;28;20455;-67
2021/10/03 04:38:42;;;;;;;540.27;508.47;;;;;;;;;;5052490;28;21077;-67
2021/10/03 04:41:09;;;;;;;543.80;512.80;;;;;;;;;;5052337;28;20531;-67
2021/10/03 04:43:36;;;;;;;524.63;492.63;;;;;;;;;;5053109;28;20444;-68
2021/10/03 04:46:03;;;;;;;539.10;508.57;;;;;;;;;;5052509;28;20448;-67
2021/10/03 04:48:32;;;;;;;513.97;482.53;;;;;;;;;;5052906;28;20798;-67
2021/10/03 04:50:59;;;;;;;546.60;515.30;;;;;;;;;;5056618;28;20451;-67
2021/10/03 04:53:26;;;;;;;531.90;501.40;;;;;;;;;;5051994;28;20970;-66
2021/10/03 04:55:53;;;;;;;540.90;510.00;;;;;;;;;;5052094;28;20455;-67
2021/10/03 04:58:20;;;;;;;550.10;518.90;;;;;;;;;;5051512;28;20998;-66
2021/10/03 05:00:47;;;;;;;524.87;493.37;;;;;;;;;;5052360;28;20467;-67
2021/10/03 05:03:14;;;;;;;540.33;508.63;;;;;;;;;;5052487;28;20462;-67
2021/10/03 05:05:43;;;;;;;523.27;492.73;;;;;;;;;;5051262;28;20821;-67
2021/10/03 05:08:12;;;;;;;516.67;485.97;;;;;;;;;;5052299;28;20444;-67
2021/10/03 05:10:39;;;;;;;502.47;471.77;;;;;;;;;;5054556;28;20472;-67
2021/10/03 05:13:06;;;;;;;503.17;472.47;;;;;;;;;;5052015;28;20448;-67
2021/10/03 05:15:33;;;;;;;515.97;485.13;;;;;;;;;;5051667;28;20455;-67
2021/10/03 05:18:00;;;;;;;499.70;468.83;;;;;;;;;;5053114;28;20479;-67
2021/10/03 05:20:27;;;;;;;494.57;464.10;;;;;;;;;;5051345;28;20472;-67
2021/10/03 05:22:56;;;;;;;524.20;493.70;;;;;;;;;;5052243;28;20517;-67
2021/10/03 05:25:23;;;;;;;515.27;484.27;;;;;;;;;;5053811;28;20448;-67
2021/10/03 05:27:50;;;;;;;520.47;489.10;;;;;;;;;;5051726;28;20456;-67
2021/10/03 05:30:17;;;;;;;504.93;473.10;;;;;;;;;;5051367;28;20825;-67
2021/10/03 05:32:45;;;;;;;522.53;490.60;;;;;;;;;;5051643;28;20448;-67
2021/10/03 05:35:13;;;;;;;511.13;479.73;;;;;;;;;;5051113;28;20505;-67
2021/10/03 05:37:40;;;;;;;531.97;500.10;;;;;;;;;;5051809;28;20486;-67
2021/10/03 05:40:09;;;;;;;510.17;478.60;;;;;;;;;;5051371;28;20460;-67
2021/10/03 05:42:36;;;;;;;544.63;513.60;;;;;;;;;;5051310;28;20961;-66
2021/10/03 05:45:04;;;;;;;525.83;494.37;;;;;;;;;;5052822;28;20452;-68
2021/10/03 05:47:31;;;;;;;510.40;479.53;;;;;;;;;;5051402;28;20495;-66
2021/10/03 05:52:27;;;;;;;505.70;474.90;;;;;;;;;;5052831;28;20464;-69
2021/10/03 05:54:54;;;;;;;497.20;466.17;;;;;;;;;;5071960;28;20454;-69
2021/10/03 05:57:22;;;;;;;518.40;487.20;;;;;;;;;;5065154;28;20444;-69
2021/10/03 05:59:49;;;;;;;528.97;497.83;;;;;;;;;;5060399;28;20972;-69
2021/10/03 06:02:16;;;;;;;497.30;467.10;;;;;;;;;;5024531;28;20467;-69
2021/10/03 06:04:43;;;;;;;524.03;493.23;;;;;;;;;;5042549;28;20453;-69
2021/10/03 06:07:11;;;;;;;517.87;487.47;;;;;;;;;;5013260;28;20824;-69
2021/10/03 06:09:38;;;;;;;521.23;491.33;;;;;;;;;;5033526;28;20448;-68
2021/10/03 06:12:05;;;;;;;531.37;500.70;;;;;;;;;;5033838;28;20466;-68
2021/10/03 06:14:34;;;;;;;565.03;532.13;;;;;;;;;;5035629;28;20583;-68
2021/10/03 06:17:01;;;;;;;523.77;491.67;;;;;;;;;;5036580;28;20955;-68
2021/10/03 06:19:28;;;;;;;493.33;461.83;;;;;;;;;;5036420;28;20484;-68
2021/10/03 06:21:55;;;;;;;456.47;426.17;;;;;;;;;;5030173;28;20470;-68
2021/10/03 06:24:22;;;;;;;426.73;397.63;;;;;;;;;;5034926;28;20528;-69
2021/10/03 06:26:50;;;;;;;413.30;386.07;;;;;;;;;;5018102;28;20460;-68
2021/10/03 06:29:17;;;;;;;429.50;402.13;;;;;;;;;;5033246;28;20547;-68
2021/10/03 06:31:45;;;;;;;399.83;374.03;;;;;;;;;;5036379;28;20469;-67
2021/10/03 06:34:13;;;;;;;419.97;395.03;;;;;;;;;;5032169;28;20982;-67
2021/10/03 06:36:40;;;;;;;401.73;378.03;;;;;;;;;;5033766;28;20466;-68
2021/10/03 06:39:07;;;;;;;395.23;372.43;;;;;;;;;;5041549;28;20480;-69
2021/10/03 06:41:34;;;;;;;386.70;364.03;;;;;;;;;;5054193;28;20469;-69
2021/10/03 06:44:01;;;;;;;403.93;380.83;;;;;;;;;;5028142;28;20467;-68
2021/10/03 06:46:28;;;;;;;391.03;369.03;;;;;;;;;;5034801;28;20464;-68
2021/10/03 06:48:57;;;;;;;402.00;379.23;;;;;;;;;;5033796;28;20464;-68
2021/10/03 06:51:24;;;;;;;367.03;345.77;;;;;;;;;;5033337;28;20583;-69
2021/10/03 06:53:51;;;;;;;354.63;333.90;;;;;;;;;;5034043;28;20882;-68
2021/10/03 06:56:18;;;;;;;389.90;369.30;;;;;;;;;;5034458;28;20459;-68
2021/10/03 06:58:45;;;;;;;375.20;355.20;;;;;;;;;;5035131;28;20495;-68
2021/10/03 07:01:13;;;;;;;367.47;347.17;;;;;;;;;;5031444;28;20488;-68
2021/10/03 07:03:40;;;;;;;368.90;349.47;;;;;;;;;;5035051;28;20457;-68
2021/10/03 07:06:08;;;;;;;385.13;365.33;;;;;;;;;;5031352;28;20468;-68
2021/10/03 07:08:36;;;;;;;394.23;374.40;;;;;;;;;;5022539;28;20456;-68
2021/10/03 07:11:04;;;;;;;377.90;358.63;;;;;;;;;;5042378;28;20487;-67
2021/10/03 07:13:31;;;;;;;348.37;329.67;;;;;;;;;;5035907;28;20555;-69
2021/10/03 07:15:58;;;;;;;364.57;346.43;;;;;;;;;;5034748;28;20444;-69
2021/10/03 07:18:25;;;;;;;358.83;340.43;;;;;;;;;;5033887;28;20483;-68
2021/10/03 07:20:52;;;;;;;346.97;328.77;;;;;;;;;;5034141;28;20811;-69
2021/10/03 07:23:21;;;;;;;369.50;350.00;;;;;;;;;;5032795;28;20470;-69
2021/10/03 07:25:48;;;;;;;369.17;350.60;;;;;;;;;;5028839;28;20463;-69
2021/10/03 07:28:15;;;;;;;356.77;338.80;;;;;;;;;;5035009;28;20489;-69
2021/10/03 07:30:42;;;;;;;356.63;338.73;;;;;;;;;;5034746;28;20480;-69
2021/10/03 07:33:09;;;;;;;357.87;339.87;;;;;;;;;;5033258;28;20449;-69
2021/10/03 07:35:36;;;;;;;362.37;344.63;;;;;;;;;;5034393;28;20816;-69
2021/10/03 07:38:04;;;;;;;359.70;342.20;;;;;;;;;;5034054;28;20488;-68
2021/10/03 07:40:32;;;;;;;371.90;353.93;;;;;;;;;;5034160;28;21011;-68
2021/10/03 07:42:59;;;;;;;362.83;345.33;;;;;;;;;;5022581;28;20449;-68
2021/10/03 07:45:26;;;;;;;360.77;342.97;;;;;;;;;;5029720;28;20457;-68
2021/10/03 07:47:53;;;;;;;350.43;333.23;;;;;;;;;;5034000;28;20448;-68
2021/10/03 07:50:21;;;;;;;353.43;336.30;;;;;;;;;;5034292;28;20464;-68
2021/10/03 07:52:48;;;;;;;354.70;337.43;;;;;;;;;;5016832;28;20438;-69
2021/10/03 07:55:15;;;;;;;353.57;336.50;;;;;;;;;;5033974;28;20441;-68
2021/10/03 07:57:43;;;;;;;346.97;329.97;;;;;;;;;;5034388;28;20891;-68
2021/10/03 08:00:11;;;;;;;350.67;333.97;;;;;;;;;;5033441;28;21010;-69
2021/10/03 08:02:38;;;;;;;371.83;351.77;;;;;;;;;;5023603;28;20465;-67
2021/10/03 08:05:09;;;;;;;430.77;403.07;;;;;;;;;;5033496;28;20459;-69
2021/10/03 08:07:36;;;;;;;428.33;399.47;;;;;;;;;;5034132;28;20441;-69
2021/10/03 08:10:03;;;;;;;431.73;402.00;;;;;;;;;;5018564;28;20992;-69
2021/10/03 08:12:31;;;;;;;430.57;401.77;;;;;;;;;;5035195;28;20467;-69
2021/10/03 08:15:00;;;;;;;428.73;403.67;;;;;;;;;;5045225;28;20456;-69
2021/10/03 08:17:27;;;;;;;406.73;380.10;;;;;;;;;;5053372;28;20834;-67
2021/10/03 08:19:54;;;;;;;423.20;397.27;;;;;;;;;;5038201;28;20477;-69
2021/10/03 08:22:21;;;;;;;361.80;341.97;;;;;;;;;;5033115;28;20459;-70
2021/10/03 08:24:48;;;;;;;424.03;398.37;;;;;;;;;;5033254;28;20455;-69
2021/10/03 08:27:15;;;;;;;400.87;374.97;;;;;;;;;;5033177;28;20970;-67
2021/10/03 08:29:43;;;;;;;392.03;366.17;;;;;;;;;;5029867;28;20460;-71
2021/10/03 08:32:11;;;;;;;414.43;388.20;;;;;;;;;;5030210;28;20483;-71
2021/10/03 08:34:38;;;;;;;418.57;393.10;;;;;;;;;;5033128;28;20452;-71
2021/10/03 08:37:05;;;;;;;417.93;391.63;;;;;;;;;;5032660;28;20467;-71
2021/10/03 08:39:32;;;;;;;424.47;397.77;;;;;;;;;;5031426;28;20484;-71
2021/10/03 08:41:59;;;;;;;423.17;396.23;;;;;;;;;;5031729;28;20469;-71
2021/10/03 08:44:31;;;;;;;449.57;421.97;;;;;;;;;;5031477;28;20449;-71
2021/10/03 08:46:58;;;;;;;455.53;428.23;;;;;;;;;;5039778;28;20468;-76
2021/10/03 08:49:27;;;;;;;435.30;408.17;;;;;;;;;;5047074;28;20452;-71
2021/10/03 08:51:54;;;;;;;456.17;428.67;;;;;;;;;;5032427;28;20850;-71
2021/10/03 08:54:21;;;;;;;438.10;411.93;;;;;;;;;;5032307;28;20452;-69
2021/10/03 08:56:48;;;;;;;472.10;444.40;;;;;;;;;;5032999;28;20449;-71
2021/10/03 08:59:15;;;;;;;469.10;440.83;;;;;;;;;;5031480;28;20830;-70
2021/10/03 09:01:50;;;;;;;442.03;415.40;;;;;;;;;;5031437;28;21243;-71
2021/10/03 09:04:32;;;;;;;426.90;400.00;;;;;;;;;;5032114;28;20940;-71
2021/10/03 09:07:03;;;;;;;450.80;423.50;;;;;;;;;;5028026;28;20471;-71
2021/10/03 09:09:50;;;;;;;435.73;409.00;;;;;;;;;;5024307;28;20467;-71
2021/10/03 09:12:28;;;;;;;459.60;431.90;;;;;;;;;;5019366;28;20844;-70
2021/10/03 09:14:55;;;;;;;405.87;377.77;;;;;;;;;;5031018;28;20464;-71
2021/10/03 09:17:22;;;;;;;466.93;439.40;;;;;;;;;;5031279;28;20463;-71
2021/10/03 09:20:12;;;;;;;435.63;408.57;;;;;;;;;;5030980;28;20484;-71
2021/10/03 09:22:57;;;;;;;459.53;432.43;;;;;;;;;;5032031;28;20536;-70
2021/10/03 09:25:31;;;;;;;453.10;426.17;;;;;;;;;;5031774;28;20452;-70
2021/10/03 09:27:58;;;;;;;440.27;413.07;;;;;;;;;;5031429;28;20457;-70
2021/10/03 09:30:25;;;;;;;424.53;398.33;;;;;;;;;;5025324;28;20998;-70
2021/10/03 09:32:56;;;;;;;445.80;419.13;;;;;;;;;;5032201;28;20539;-69
2021/10/03 09:35:24;;;;;;;447.77;421.33;;;;;;;;;;5031750;28;20456;-69
2021/10/03 09:37:51;;;;;;;452.87;426.77;;;;;;;;;;5031687;28;20453;-69
2021/10/03 09:40:19;;;;;;;454.23;427.80;;;;;;;;;;5032011;28;20501;-70
2021/10/03 09:42:52;;;;;;;484.53;458.00;;;;;;;;;;5036946;28;20470;-69
2021/10/03 09:45:21;;;;;;;500.57;473.17;;;;;;;;;;5037035;28;20953;-70
2021/10/03 09:47:58;;;;;;;500.53;472.60;;;;;;;;;;5018360;28;20458;-69
2021/10/03 09:50:27;;;;;;;475.83;448.30;;;;;;;;;;5031695;28;20484;-69
2021/10/03 09:52:54;;;;;;;512.67;484.17;;;;;;;;;;5031303;28;20448;-69
2021/10/03 09:55:25;;;;;;;498.67;470.47;;;;;;;;;;5031183;28;20444;-69
2021/10/03 09:57:52;;;;;;;515.40;486.87;;;;;;;;;;5026121;28;20477;-70
2021/10/03 10:00:20;;;;;;;490.97;462.50;;;;;;;;;;5030730;28;20538;-69
2021/10/03 10:02:47;;;;;;;524.63;496.23;;;;;;;;;;5032122;28;20448;-69
2021/10/03 10:05:15;;;;;;;468.63;441.43;;;;;;;;;;5030429;28;20459;-69
2021/10/03 10:07:44;;;;;;;425.23;398.43;;;;;;;;;;5031470;28;20748;-69
2021/10/03 10:10:12;;;;;;;403.10;378.27;;;;;;;;;;5018862;28;20949;-70
2021/10/03 10:12:45;;;;;;;432.30;406.97;;;;;;;;;;5012391;28;20429;-70
2021/10/03 10:15:12;;;;;;;432.73;407.00;;;;;;;;;;5021097;28;20827;-70
2021/10/03 10:17:40;;;;;;;447.43;421.87;;;;;;;;;;5031498;28;21010;-70
2021/10/03 10:20:24;;;;;;;462.73;435.13;;;;;;;;;;5030299;28;20551;-68
2021/10/03 10:22:55;;;;;;;466.53;438.77;;;;;;;;;;5031012;28;20451;-69
2021/10/03 10:25:38;;;;;;;446.03;419.23;;;;;;;;;;5031228;28;20451;-70
2021/10/03 10:28:09;;;;;;;419.57;392.97;;;;;;;;;;5035012;28;20448;-72
2021/10/03 10:30:37;;;;;;;370.73;345.93;;;;;;;;;;5016956;28;20504;-71
2021/10/03 10:33:06;;;;;;;392.77;367.53;;;;;;;;;;5027936;28;20976;-73
2021/10/03 10:35:34;;;;;;;381.07;356.63;;;;;;;;;;5027862;28;20535;-71
2021/10/03 10:38:19;;;;;;;398.43;374.23;;;;;;;;;;5030890;28;20455;-71
2021/10/03 10:40:46;;;;;;;359.37;335.70;;;;;;;;;;5031537;28;20520;-71
2021/10/03 10:43:46;;;;;;;389.83;366.17;;;;;;;;;;5030943;28;20449;-71
2021/10/03 10:46:32;;;;;;;377.13;354.23;;;;;;;;;;5033165;28;20444;-73
2021/10/03 10:49:14;;;;;;;382.07;359.13;;;;;;;;;;5017551;28;20444;-73
2021/10/03 10:51:41;;;;;;;362.97;340.17;;;;;;;;;;5033612;28;20487;-72
2021/10/03 10:54:16;;;;;;;372.47;348.63;;;;;;;;;;5035040;28;20452;-72
2021/10/03 10:56:43;;;;;;;371.37;348.07;;;;;;;;;;5038578;28;20452;-73
2021/10/03 10:59:11;;;;;;;362.80;340.30;;;;;;;;;;5038118;28;20587;-72
2021/10/03 11:01:40;;;;;;;356.13;333.30;;;;;;;;;;5039185;28;20484;-72
2021/10/03 11:04:22;;;;;;;383.87;359.73;;;;;;;;;;5038530;28;20460;-73
2021/10/03 11:06:58;;;;;;;379.80;355.60;;;;;;;;;;5035201;28;20460;-72
2021/10/03 11:09:27;;;;;;;357.90;334.60;;;;;;;;;;5038656;28;20432;-73
2021/10/03 11:11:59;;;;;;;365.53;342.83;;;;;;;;;;5035672;28;20567;-73
2021/10/03 11:14:27;;;;;;;356.70;334.90;;;;;;;;;;5034657;28;20444;-73
2021/10/03 11:16:59;;;;;;;362.20;339.90;;;;;;;;;;5018409;28;20536;-73
2021/10/03 11:19:33;;;;;;;345.70;324.83;;;;;;;;;;5018700;28;20543;-74
2021/10/03 11:22:01;;;;;;;341.50;321.50;;;;;;;;;;5035356;28;20484;-73
2021/10/03 11:24:31;;;;;;;353.73;334.20;;;;;;;;;;5036849;28;20449;-73
2021/10/03 11:26:59;;;;;;;350.53;330.87;;;;;;;;;;5018911;28;20453;-72
2021/10/03 11:29:27;;;;;;;345.03;326.23;;;;;;;;;;5029590;28;20464;-73
2021/10/03 11:31:55;;;;;;;343.63;325.33;;;;;;;;;;5035834;28;20471;-72
2021/10/03 11:34:26;;;;;;;342.70;324.70;;;;;;;;;;5036900;28;20909;-72
2021/10/03 11:36:54;;;;;;;333.13;315.80;;;;;;;;;;5038823;28;20962;-72
2021/10/03 11:39:35;;;;;;;320.90;303.80;;;;;;;;;;5038525;28;20477;-72
2021/10/03 11:42:02;;;;;;;342.90;326.00;;;;;;;;;;5037879;28;20932;-73
2021/10/03 11:44:29;;;;;;;354.13;337.33;;;;;;;;;;5037554;28;20841;-71
2021/10/03 11:47:01;;;;;;;330.63;313.87;;;;;;;;;;5043433;28;20448;-76
2021/10/03 11:49:31;;;;;;;328.03;311.70;;;;;;;;;;5022278;28;20441;-75
2021/10/03 11:51:58;;;;;;;314.83;298.43;;;;;;;;;;5022441;28;20481;-77
2021/10/03 11:54:29;;;;;;;324.57;308.27;;;;;;;;;;5042033;28;20467;-76
2021/10/03 11:56:58;;;;;;;329.93;313.47;;;;;;;;;;5036398;28;20963;-68
2021/10/03 11:59:25;;;;;;;336.93;320.83;;;;;;;;;;5033317;28;20504;-66
2021/10/03 12:01:52;;;;;;;333.20;316.90;;;;;;;;;;5033828;28;20475;-66
2021/10/03 12:04:26;;;;;;;325.23;308.90;;;;;;;;;;5032654;28;20457;-66
2021/10/03 12:06:53;;;;;;;322.50;306.20;;;;;;;;;;5032227;28;20463;-66
2021/10/03 12:09:22;;;;;;;333.40;316.50;;;;;;;;;;5033855;28;20460;-70
2021/10/03 12:11:49;;;;;;;329.70;312.40;;;;;;;;;;5025781;28;20470;-66
2021/10/03 12:14:18;;;;;;;339.77;321.97;;;;;;;;;;5017201;28;20472;-69
2021/10/03 12:16:52;;;;;;;339.70;321.67;;;;;;;;;;5032878;28;20468;-69
2021/10/03 12:19:19;;;;;;;329.57;311.37;;;;;;;;;;5033115;28;20939;-69
2021/10/03 12:21:47;;;;;;;335.63;317.23;;;;;;;;;;5033207;28;20464;-67
2021/10/03 12:24:14;;;;;;;342.13;323.13;;;;;;;;;;5033189;28;20451;-68
2021/10/03 12:26:42;;;;;;;323.63;304.73;;;;;;;;;;5032524;28;20449;-68
2021/10/03 12:29:13;;;;;;;362.17;342.77;;;;;;;;;;5033026;28;20456;-70
2021/10/03 12:31:46;;;;;;;348.60;329.50;;;;;;;;;;5033046;28;20476;-68
2021/10/03 12:34:30;;;;;;;342.70;323.90;;;;;;;;;;5031263;28;20564;-67
2021/10/03 12:36:58;;;;;;;334.50;316.20;;;;;;;;;;5032482;28;20444;-71
2021/10/03 12:39:26;;;;;;;351.67;333.37;;;;;;;;;;5031994;28;21019;-67
2021/10/03 12:41:54;;;;;;;338.07;319.87;;;;;;;;;;5032896;28;20473;-68
2021/10/03 12:44:22;;;;;;;341.33;323.40;;;;;;;;;;5032732;28;20463;-69
2021/10/03 12:46:50;;;;;;;340.20;322.43;;;;;;;;;;5032452;28;20948;-67
2021/10/03 12:49:18;;;;;;;348.63;331.13;;;;;;;;;;5033112;28;20959;-69
2021/10/03 12:51:45;;;;;;;341.83;324.23;;;;;;;;;;5022067;28;20483;-67
2021/10/03 12:54:12;;;;;;;326.93;309.67;;;;;;;;;;5029845;28;20452;-68
2021/10/03 12:56:40;;;;;;;351.57;334.27;;;;;;;;;;5030299;28;20963;-68
2021/10/03 12:59:07;;;;;;;341.57;324.97;;;;;;;;;;5021021;28;20450;-68
2021/10/03 13:01:34;;;;;;;327.20;310.97;;;;;;;;;;5035014;28;20873;-69
2021/10/03 13:04:02;;;;;;;328.23;312.23;;;;;;;;;;5033989;28;20453;-69
2021/10/03 13:06:29;;;;;;;332.07;316.43;;;;;;;;;;5031146;28;20810;-68
2021/10/03 13:08:56;;;;;;;329.10;313.70;;;;;;;;;;5033202;28;20452;-68
2021/10/03 13:11:24;;;;;;;336.20;321.20;;;;;;;;;;5032165;28;20806;-68
2021/10/03 13:13:51;;;;;;;334.60;319.70;;;;;;;;;;5032398;28;20464;-69
2021/10/03 13:16:18;;;;;;;330.27;315.83;;;;;;;;;;5031930;28;20457;-68
2021/10/03 13:18:45;;;;;;;326.87;312.37;;;;;;;;;;5032066;28;20460;-68
2021/10/03 13:21:13;;;;;;;331.60;316.90;;;;;;;;;;5031276;28;21022;-68
2021/10/03 13:23:41;;;;;;;327.03;312.60;;;;;;;;;;5030384;28;20452;-69
2021/10/03 13:26:08;;;;;;;327.80;313.40;;;;;;;;;;5020064;28;20487;-69
2021/10/03 13:28:35;;;;;;;322.57;308.37;;;;;;;;;;5026953;28;20455;-69
2021/10/03 13:31:04;;;;;;;338.70;324.40;;;;;;;;;;5031599;28;20460;-67
2021/10/03 13:33:31;;;;;;;311.90;298.50;;;;;;;;;;5031980;28;20465;-69
2021/10/03 13:35:58;;;;;;;327.13;313.33;;;;;;;;;;5031157;28;20449;-69
2021/10/03 13:38:27;;;;;;;329.50;315.70;;;;;;;;;;5031806;28;20453;-68
2021/10/03 13:40:55;;;;;;;334.13;319.93;;;;;;;;;;5031278;28;21006;-69
2021/10/03 13:43:22;;;;;;;316.10;302.37;;;;;;;;;;5030883;28;20461;-69
2021/10/03 13:45:49;;;;;;;324.43;310.80;;;;;;;;;;5031230;28;20536;-69
2021/10/03 13:48:17;;;;;;;325.13;310.43;;;;;;;;;;5032031;28;20545;-69
2021/10/03 13:50:44;;;;;;;336.87;321.37;;;;;;;;;;5030980;28;20472;-68
2021/10/03 13:53:11;;;;;;;351.53;335.13;;;;;;;;;;5030553;28;20459;-69
2021/10/03 13:55:40;;;;;;;354.03;336.73;;;;;;;;;;5031618;28;20452;-69
2021/10/03 13:58:07;;;;;;;349.17;331.47;;;;;;;;;;5031352;28;20452;-68
2021/10/03 14:00:34;;;;;;;358.40;341.00;;;;;;;;;;5030797;28;20515;-69